Accueil
METAR-TAF:

METAR-TAF

Aéroports :

Aéroport de Trois-Rivières

Trois-Rivières, Québec, Canada

latitude: 46-21-06N, longitude: 72-40-50W, altitude: 61 m

Observation

Le bulletin a été fait il y a 30 heures et 4 minutes, à 00:09 UTC
Vent calme
Température 20°C
Humidité 78%
Pression 1019 hPa
Visibilité: 6.4 km
Ciel clair
brume sèche

METAR: CYRQ 210009Z AUTO 00000KT 4SM HZ CLR 20/16 A3009 RMK SLP192 DENSITY ALT 500FT

Heure: 02:13 (06:13 UTC)

Prévision

Le bulletin a été fait il y a 16 heures et 33 minutes, à 13:40 UTC
Prévision valable du 20 à 14 UTC au 21 à 02 UTC
Vent 3 kt de est
Visibilité: 10 km
Ciel clair
Evoluant progressivement
du 20 à 16 UTC au 20 à 18 UTC
Vent 5 kt de sud/sud-ouest
Evoluant progressivement
du 20 à 22 UTC au 20 à 24 UTC
Vent 3 kt de direction variable

TAF: CYRQ 201340Z 2014/2102 10003KT P6SM SKC BECMG 2016/2018 20005KT BECMG 2022/2024 VRB03KT RMK FCST BASED ON AUTO OBS. NXT FCST BY 202000Z

Observations et prévisions météorologiques de plus de 4000 aéroports (messages METAR et TAF).

Les stations disponibles sont représentées par des disques jaunes et rouges sur la carte.

Passer la souris dessus pour voir le nom de la station.

Cliquer dessus pour voir les observations et prévisions météorologiques.

Pour changer de carte: cliquez sur les boutons verts avec une croix noire pour zoomer, sur le bouton vert avec un tiret pour effectuer un zoom arrière, ou sur les flèches vertes pour les cartes adjacentes.


METAR-TAF: